Airports United Kingdom London Gatwick Airport

London Gatwick Airport (EGKK / LGW)

Facts about London Gatwick Airport

Name London Gatwick Airport
City London
Country United Kingdom
ICAO code EGKK
IATA code LGW
Elevation 61.5696 meters (202 feet)

Weather

METAR

Metar data retrieved Friday, 19 July 2024 at 23:25 UTC (19 minutes ago)

EGKK 192250Z 19005KT CAVOK 19/16 Q1013

Live traffic

Navigraph Charts (account required)